createdAt,value
2019-04-04T00:02:41.416Z,28.73
2019-04-04T00:06:05.310Z,28.10
2019-04-04T00:09:29.238Z,33.13
2019-04-04T00:12:53.019Z,33.07
2019-04-04T00:16:18.810Z,28.43
2019-04-04T00:19:42.981Z,38.43
2019-04-04T00:23:07.474Z,27.13
2019-04-04T00:26:31.648Z,37.13
2019-04-04T00:29:55.506Z,43.07
2019-04-04T00:33:19.472Z,31.87
2019-04-04T00:36:43.393Z,31.03
2019-04-04T00:40:10.906Z,32.30
2019-04-04T00:43:33.072Z,33.77
2019-04-04T00:46:57.048Z,29.73
2019-04-04T00:50:20.976Z,32.50
2019-04-04T00:53:45.027Z,28.50
2019-04-04T00:57:08.928Z,29.10
2019-04-04T01:00:32.873Z,29.03
2019-04-04T01:03:56.930Z,31.87
2019-04-04T01:07:20.761Z,27.33
2019-04-04T01:10:44.576Z,35.40
2019-04-04T01:14:08.550Z,36.70
2019-04-04T01:17:33.012Z,24.50
2019-04-04T01:20:57.939Z,26.30
2019-04-04T01:24:21.896Z,29.23
2019-04-04T01:27:45.722Z,32.63
2019-04-04T01:31:09.680Z,26.13
2019-04-04T01:34:33.946Z,31.40
2019-04-04T01:38:01.935Z,28.47
2019-04-04T01:41:25.782Z,30.83
2019-04-04T01:44:49.800Z,27.93
2019-04-04T01:48:14.366Z,34.43
2019-04-04T01:51:38.149Z,30.13
2019-04-04T01:55:03.499Z,26.33
2019-04-04T01:58:27.558Z,26.07
2019-04-04T02:01:51.438Z,36.10
2019-04-04T02:05:15.369Z,38.67
2019-04-04T02:08:39.105Z,36.10
2019-04-04T02:12:07.863Z,28.27
2019-04-04T02:15:31.496Z,29.50
2019-04-04T02:18:55.451Z,34.03
2019-04-04T02:22:19.368Z,39.50
2019-04-04T02:25:43.110Z,28.43
2019-04-04T02:29:11.754Z,28.20
2019-04-04T02:32:35.897Z,30.60
2019-04-04T02:35:59.972Z,33.87
2019-04-04T02:39:23.739Z,30.00
2019-04-04T02:42:47.763Z,34.37
2019-04-04T02:46:13.183Z,34.17
2019-04-04T02:49:36.906Z,31.47
2019-04-04T02:53:00.669Z,29.23
2019-04-04T02:56:36.554Z,34.67
2019-04-04T03:00:00.754Z,27.93
2019-04-04T03:03:42.496Z,33.87
2019-04-04T03:07:15.307Z,34.17
2019-04-04T03:10:42.001Z,31.73
2019-04-04T03:14:05.931Z,37.50
2019-04-04T03:17:32.561Z,30.73
2019-04-04T03:20:55.120Z,28.70
2019-04-04T03:24:24.991Z,35.30
2019-04-04T03:27:48.802Z,30.70
2019-04-04T03:31:12.649Z,31.90
2019-04-04T03:34:43.236Z,28.10
2019-04-04T03:38:04.842Z,33.63
2019-04-04T03:41:30.621Z,34.80
2019-04-04T03:44:54.420Z,31.20
2019-04-04T03:48:18.808Z,34.13
2019-04-04T03:51:42.786Z,32.50
2019-04-04T03:55:07.520Z,33.37
2019-04-04T03:58:31.598Z,30.30
2019-04-04T04:01:55.495Z,30.17
2019-04-04T04:05:27.912Z,32.43
2019-04-04T04:08:54.876Z,31.10
2019-04-04T04:12:17.476Z,28.70
2019-04-04T04:15:41.236Z,30.73
2019-04-04T04:19:05.014Z,33.23
2019-04-04T04:22:30.422Z,30.90
2019-04-04T04:25:54.302Z,29.93
2019-04-04T04:29:18.117Z,34.23
2019-04-04T04:32:47.837Z,28.80
2019-04-04T04:36:15.292Z,30.33
2019-04-04T04:39:41.262Z,29.30
2019-04-04T04:43:02.810Z,33.33
2019-04-04T04:46:26.636Z,38.60
2019-04-04T04:49:55.278Z,29.23
2019-04-04T04:53:19.518Z,33.87
2019-04-04T04:56:46.529Z,28.17
2019-04-04T05:00:10.698Z,32.13
2019-04-04T05:03:34.657Z,39.77
2019-04-04T05:06:58.639Z,30.30
2019-04-04T05:10:24.131Z,33.83
2019-04-04T05:13:48.117Z,31.17
2019-04-04T05:17:11.886Z,33.77
2019-04-04T05:20:35.856Z,32.70
2019-04-04T05:23:59.733Z,35.90
2019-04-04T05:27:23.611Z,33.07
2019-04-04T05:30:50.171Z,31.40
2019-04-04T05:34:13.975Z,37.00
2019-04-04T05:37:38.905Z,31.37
2019-04-04T05:41:02.912Z,30.53
2019-04-04T05:44:28.759Z,32.97
2019-04-04T05:47:55.059Z,37.53
2019-04-04T05:51:18.184Z,39.20
2019-04-04T05:54:42.023Z,33.10
2019-04-04T05:58:05.861Z,30.47
2019-04-04T06:01:35.323Z,25.40
2019-04-04T06:04:58.981Z,37.07
2019-04-04T06:08:23.106Z,40.57
2019-04-04T06:11:48.755Z,32.90
2019-04-04T06:15:13.226Z,28.63
2019-04-04T06:18:37.114Z,45.17
2019-04-04T06:22:00.889Z,31.37
2019-04-04T06:25:24.873Z,33.00
2019-04-04T06:28:57.718Z,28.93
2019-04-04T06:32:21.721Z,36.27
2019-04-04T06:35:47.866Z,46.63
2019-04-04T06:39:10.936Z,40.33
2019-04-04T06:42:36.197Z,35.20
2019-04-04T06:46:00.971Z,40.57
2019-04-04T06:49:24.846Z,41.90
2019-04-04T06:52:50.408Z,41.47
2019-04-04T06:56:14.203Z,35.13
2019-04-04T06:59:38.135Z,36.70
2019-04-04T07:03:01.907Z,40.23
2019-04-04T07:06:25.751Z,41.70
2019-04-04T07:13:21.713Z,36.67
2019-04-04T07:16:39.909Z,32.27
2019-04-04T07:20:05.675Z,35.58
2019-04-04T07:23:29.596Z,36.40
2019-04-04T07:26:53.432Z,33.07
2019-04-04T07:30:17.658Z,29.80
2019-04-04T07:33:42.855Z,30.90
2019-04-04T07:37:06.858Z,31.80
2019-04-04T07:40:30.634Z,29.93
2019-04-04T07:43:54.486Z,34.00
2019-04-04T07:47:18.294Z,30.37
2019-04-04T07:50:42.233Z,35.50
2019-04-04T07:54:07.371Z,28.70
2019-04-04T07:57:31.827Z,34.60
2019-04-04T08:00:55.861Z,30.27
2019-04-04T08:04:19.588Z,29.57
2019-04-04T08:07:43.306Z,34.60
2019-04-04T08:11:07.066Z,27.30
2019-04-04T08:14:30.978Z,35.27
2019-04-04T08:17:54.688Z,33.00
2019-04-04T08:21:18.635Z,30.00
2019-04-04T08:24:44.336Z,25.77
2019-04-04T08:28:08.213Z,37.23
2019-04-04T08:31:31.956Z,28.47
2019-04-04T08:34:55.799Z,25.70
2019-04-04T08:38:19.689Z,26.10
2019-04-04T08:41:43.449Z,26.93
2019-04-04T08:45:10.304Z,26.83
2019-04-04T08:48:34.163Z,28.13
2019-04-04T08:51:58.104Z,30.17
2019-04-04T08:55:21.914Z,35.73
2019-04-04T08:58:45.807Z,29.87
2019-04-04T09:02:09.516Z,26.20
2019-04-04T09:05:34.308Z,29.10
2019-04-04T09:08:58.294Z,36.03
2019-04-04T09:12:22.104Z,23.87
2019-04-04T09:15:46.428Z,29.77
2019-04-04T09:19:10.243Z,26.60
2019-04-04T09:22:34.127Z,28.23
2019-04-04T09:26:05.468Z,33.77
2019-04-04T09:29:23.386Z,27.60
2019-04-04T09:32:47.226Z,26.07
2019-04-04T09:36:11.087Z,26.23
2019-04-04T09:39:34.930Z,30.40
2019-04-04T09:42:58.839Z,27.40
2019-04-04T09:46:22.598Z,24.70
2019-04-04T09:49:46.912Z,32.60
2019-04-04T09:53:10.759Z,21.60
2019-04-04T09:56:34.560Z,27.93
2019-04-04T09:59:58.310Z,28.90
2019-04-04T10:03:22.171Z,23.00
2019-04-04T10:06:45.931Z,24.37
2019-04-04T10:10:10.478Z,19.97
2019-04-04T10:13:34.240Z,36.57
2019-04-04T10:16:58.229Z,29.83
2019-04-04T10:20:22.117Z,27.80
2019-04-04T10:23:45.917Z,25.97
2019-04-04T10:27:09.806Z,25.13
2019-04-04T10:30:33.543Z,27.07
2019-04-04T10:33:57.416Z,25.70
2019-04-04T10:37:21.623Z,24.77
2019-04-04T10:40:45.367Z,23.30
2019-04-04T10:44:09.279Z,26.50
2019-04-04T10:47:33.078Z,27.47
2019-04-04T10:50:57.151Z,19.37
2019-04-04T10:54:21.059Z,19.23
2019-04-04T10:57:44.825Z,22.47
2019-04-04T11:01:08.676Z,22.87
2019-04-04T11:04:32.555Z,17.93
2019-04-04T11:07:56.932Z,20.90
2019-04-04T11:11:20.946Z,22.67
2019-04-04T11:14:44.824Z,19.33
2019-04-04T11:18:08.652Z,20.03
2019-04-04T11:21:32.392Z,17.63
2019-04-04T11:24:56.302Z,19.07
2019-04-04T11:28:20.091Z,16.57
2019-04-04T11:31:43.903Z,19.73
2019-04-04T11:35:08.138Z,26.10
2019-04-04T11:38:32.138Z,25.87
2019-04-04T11:41:55.829Z,18.53
2019-04-04T11:45:19.764Z,19.67
2019-04-04T11:48:43.510Z,20.37
2019-04-04T11:52:07.456Z,20.37
2019-04-04T11:55:31.288Z,18.03
2019-04-04T11:58:55.177Z,13.63
2019-04-04T12:02:19.222Z,20.23
2019-04-04T12:05:43.024Z,17.03
2019-04-04T12:09:08.051Z,17.73
2019-04-04T12:12:32.133Z,24.63
2019-04-04T12:15:55.956Z,20.97
2019-04-04T12:19:19.706Z,18.47
2019-04-04T12:22:43.573Z,20.10
2019-04-04T12:26:07.702Z,18.90
2019-04-04T12:29:31.507Z,17.47
2019-04-04T12:32:55.272Z,32.50
2019-04-04T12:36:24.477Z,23.50
2019-04-04T12:39:44.771Z,19.50
2019-04-04T12:43:08.712Z,24.90
2019-04-04T12:46:32.613Z,17.50
2019-04-04T12:49:56.356Z,22.00
2019-04-04T12:53:20.216Z,18.53
2019-04-04T12:56:44.189Z,27.63
2019-04-04T13:00:09.423Z,24.93
2019-04-04T13:03:33.585Z,20.20
2019-04-04T13:06:57.438Z,19.17
2019-04-04T13:10:32.539Z,17.97
2019-04-04T13:13:46.787Z,21.27
2019-04-04T13:17:10.784Z,22.00
2019-04-04T13:20:34.701Z,27.73
2019-04-04T13:23:58.684Z,24.23
2019-04-04T13:27:22.396Z,18.63
2019-04-04T13:30:46.314Z,21.17
2019-04-04T13:34:10.135Z,19.90
2019-04-04T13:37:33.920Z,19.87
2019-04-04T13:40:57.707Z,17.77
2019-04-04T13:44:23.579Z,21.73
2019-04-04T13:47:46.940Z,20.27
2019-04-04T13:51:10.864Z,29.30
2019-04-04T13:54:34.711Z,25.23
2019-04-04T13:57:58.799Z,20.37
2019-04-04T14:01:25.239Z,18.03
2019-04-04T14:04:48.187Z,28.87
2019-04-04T14:08:14.317Z,21.87
2019-04-04T14:11:40.922Z,17.10
2019-04-04T14:15:03.147Z,20.47
2019-04-04T14:18:39.042Z,17.47
2019-04-04T14:21:52.500Z,19.57
2019-04-04T14:25:16.542Z,26.10
2019-04-04T14:28:40.337Z,20.57
2019-04-04T14:32:04.291Z,30.53
2019-04-04T14:35:28.147Z,22.90
2019-04-04T14:38:51.864Z,22.83
2019-04-04T14:42:15.615Z,21.87
2019-04-04T14:45:39.467Z,18.87
2019-04-04T14:49:03.396Z,19.87
2019-04-04T14:52:28.299Z,23.53
2019-04-04T14:55:52.149Z,17.30
2019-04-04T14:59:16.881Z,18.70
2019-04-04T15:02:40.584Z,29.47
2019-04-04T15:06:04.504Z,24.00
2019-04-04T15:09:28.413Z,23.63
2019-04-04T15:12:52.132Z,20.10
2019-04-04T15:16:17.722Z,28.20
2019-04-04T15:19:41.459Z,21.47
2019-04-04T15:23:05.331Z,26.07
2019-04-04T15:26:29.083Z,28.20
2019-04-04T15:29:52.939Z,31.60
2019-04-04T15:33:16.719Z,23.50
2019-04-04T15:36:40.749Z,27.20
2019-04-04T15:40:06.189Z,39.50
2019-04-04T15:43:30.101Z,22.80
2019-04-04T15:46:53.884Z,21.13
2019-04-04T15:50:18.543Z,26.17
2019-04-04T15:53:42.784Z,25.33
2019-04-04T15:57:06.566Z,24.20
2019-04-04T16:00:31.517Z,23.00
2019-04-04T16:03:56.924Z,31.80
2019-04-04T16:07:20.727Z,28.93
2019-04-04T16:10:44.554Z,26.07
2019-04-04T16:14:08.436Z,31.93
2019-04-04T16:17:32.246Z,20.57
2019-04-04T16:20:56.157Z,28.33
2019-04-04T16:24:20.351Z,27.50
2019-04-04T16:27:44.107Z,27.10
2019-04-04T16:31:08.289Z,25.30
2019-04-04T16:34:32.119Z,22.40
2019-04-04T16:37:55.991Z,24.10
2019-04-04T16:41:19.784Z,24.83
2019-04-04T16:44:43.736Z,30.97
2019-04-04T16:48:07.583Z,25.47
2019-04-04T16:51:31.477Z,26.17
2019-04-04T16:54:55.459Z,21.17
2019-04-04T16:58:19.767Z,23.83
2019-04-04T17:01:43.638Z,28.83
2019-04-04T17:05:10.536Z,25.90
2019-04-04T17:08:33.060Z,27.87
2019-04-04T17:11:56.914Z,21.17
2019-04-04T17:15:21.906Z,23.17
2019-04-04T17:18:45.900Z,26.00
2019-04-04T17:22:11.934Z,25.63
2019-04-04T17:25:40.052Z,28.93
2019-04-04T17:29:03.869Z,21.53
2019-04-04T17:32:28.398Z,24.83
2019-04-04T17:35:52.314Z,24.87
2019-04-04T17:39:16.257Z,26.47
2019-04-04T17:42:40.785Z,24.53
2019-04-04T17:46:05.419Z,27.53
2019-04-04T17:49:29.532Z,27.77
2019-04-04T17:52:55.403Z,28.63
2019-04-04T17:56:20.197Z,27.67
2019-04-04T17:59:44.144Z,31.13
2019-04-04T18:03:08.269Z,27.43
2019-04-04T18:06:32.247Z,35.53
2019-04-04T18:09:56.126Z,26.97
2019-04-04T18:13:32.066Z,31.13
2019-04-04T18:16:55.511Z,34.57
2019-04-04T18:20:21.374Z,26.60
2019-04-04T18:23:45.214Z,36.60
2019-04-04T18:27:09.209Z,30.70
2019-04-04T18:30:33.445Z,29.03
2019-04-04T18:33:57.648Z,29.77
2019-04-04T18:37:21.763Z,41.77
2019-04-04T18:40:45.651Z,33.73
2019-04-04T18:44:09.713Z,48.67
2019-04-04T18:47:33.613Z,34.70
2019-04-04T18:50:57.811Z,50.73
2019-04-04T18:54:22.189Z,39.50
2019-04-04T18:57:45.918Z,45.93
2019-04-04T19:01:09.894Z,46.73
2019-04-04T19:04:34.204Z,44.43
2019-04-04T19:07:58.458Z,46.60
2019-04-04T19:11:22.982Z,40.83
2019-04-04T19:14:47.149Z,50.27
2019-04-04T19:18:12.199Z,48.00
2019-04-04T19:21:38.173Z,50.40
2019-04-04T19:25:02.722Z,42.00
2019-04-04T19:28:27.945Z,42.70
2019-04-04T19:31:56.004Z,45.00
2019-04-04T19:35:21.317Z,35.43
2019-04-04T19:38:45.209Z,37.87
2019-04-04T19:42:10.381Z,42.40
2019-04-04T19:45:34.474Z,43.93
2019-04-04T19:48:58.340Z,39.00
2019-04-04T19:52:22.352Z,40.77
2019-04-04T19:55:48.601Z,49.17
2019-04-04T19:59:12.564Z,41.87
2019-04-04T20:02:37.153Z,36.60
2019-04-04T20:06:01.747Z,38.63
2019-04-04T20:09:25.719Z,41.37
2019-04-04T20:12:49.940Z,42.87
2019-04-04T20:16:13.756Z,32.30
2019-04-04T20:19:37.704Z,33.03
2019-04-04T20:23:01.481Z,30.60
2019-04-04T20:26:25.294Z,32.97
2019-04-04T20:29:49.223Z,34.93
2019-04-04T20:33:13.199Z,38.23
2019-04-04T20:36:37.111Z,31.23
2019-04-04T20:40:01.026Z,37.77
2019-04-04T20:43:24.843Z,34.17
2019-04-04T20:46:48.761Z,37.33
2019-04-04T20:50:13.315Z,40.20
2019-04-04T20:53:39.150Z,42.00
2019-04-04T20:57:03.017Z,40.63
2019-04-04T21:00:26.950Z,37.63
2019-04-04T21:03:50.818Z,41.80
2019-04-04T21:07:14.704Z,39.83
2019-04-04T21:10:38.579Z,42.87
2019-04-04T21:14:02.429Z,36.30
2019-04-04T21:17:26.476Z,42.00
2019-04-04T21:20:50.333Z,44.20
2019-04-04T21:24:15.086Z,40.90
2019-04-04T21:27:38.904Z,44.90
2019-04-04T21:31:02.747Z,43.10
2019-04-04T21:34:26.785Z,45.00
2019-04-04T21:37:50.865Z,47.37
2019-04-04T21:41:14.798Z,47.33
2019-04-04T21:44:38.676Z,54.73
2019-04-04T21:48:02.594Z,48.50
2019-04-04T21:51:26.555Z,51.37
2019-04-04T21:54:50.480Z,46.17
2019-04-04T21:58:14.306Z,50.53
2019-04-04T22:01:38.584Z,46.60
2019-04-04T22:05:02.510Z,47.30
2019-04-04T22:08:26.608Z,49.73
2019-04-04T22:11:50.451Z,48.70
2019-04-04T22:15:14.435Z,45.57
2019-04-04T22:18:38.353Z,43.87
2019-04-04T22:22:07.959Z,48.60
2019-04-04T22:25:31.804Z,48.43
2019-04-04T22:28:55.533Z,51.90
2019-04-04T22:32:19.392Z,44.17
2019-04-04T22:35:43.235Z,44.40
2019-04-04T22:39:09.096Z,44.37
2019-04-04T22:42:32.894Z,47.23
2019-04-04T22:45:56.726Z,50.53
2019-04-04T22:49:20.607Z,43.23
2019-04-04T22:52:47.499Z,46.57
2019-04-04T22:56:11.957Z,43.07
2019-04-04T22:59:35.840Z,39.23
2019-04-04T23:03:01.086Z,43.60
2019-04-04T23:06:24.961Z,44.10
2019-04-04T23:09:48.810Z,46.50
2019-04-04T23:13:12.544Z,43.70
2019-04-04T23:16:36.457Z,53.40
2019-04-04T23:20:00.382Z,45.23
2019-04-04T23:23:24.273Z,45.00
2019-04-04T23:26:48.083Z,46.17
2019-04-04T23:30:12.201Z,43.33
2019-04-04T23:33:36.086Z,48.43
2019-04-04T23:36:59.978Z,44.50
2019-04-04T23:40:23.933Z,42.17
2019-04-04T23:43:47.837Z,49.27
2019-04-04T23:47:11.799Z,45.60
2019-04-04T23:50:35.580Z,44.97
2019-04-04T23:53:59.469Z,45.50
2019-04-04T23:57:23.385Z,47.10
